sensor_id;sensor_type;location;lat;lon;timestamp;P1;durP1;ratioP1;P2;durP2;ratioP2
15716;SDS011;7960;50.908;4.204;2023-04-03T00:01:35;20.60;;;13.30;;
15716;SDS011;7960;50.908;4.204;2023-04-03T00:04:03;13.97;;;11.00;;
15716;SDS011;7960;50.908;4.204;2023-04-03T00:06:33;16.50;;;11.53;;
15716;SDS011;7960;50.908;4.204;2023-04-03T00:09:00;16.93;;;11.30;;
15716;SDS011;7960;50.908;4.204;2023-04-03T00:11:28;11.53;;;9.07;;
15716;SDS011;7960;50.908;4.204;2023-04-03T00:13:55;10.97;;;8.27;;
15716;SDS011;7960;50.908;4.204;2023-04-03T00:16:23;13.93;;;8.50;;
15716;SDS011;7960;50.908;4.204;2023-04-03T00:18:50;12.80;;;8.93;;
15716;SDS011;7960;50.908;4.204;2023-04-03T00:21:17;10.83;;;8.40;;
15716;SDS011;7960;50.908;4.204;2023-04-03T00:23:44;8.97;;;7.83;;
15716;SDS011;7960;50.908;4.204;2023-04-03T00:26:11;10.33;;;8.33;;
15716;SDS011;7960;50.908;4.204;2023-04-03T00:28:38;12.57;;;7.80;;
15716;SDS011;7960;50.908;4.204;2023-04-03T00:31:04;10.23;;;8.03;;
15716;SDS011;7960;50.908;4.204;2023-04-03T00:33:33;8.27;;;7.30;;
15716;SDS011;7960;50.908;4.204;2023-04-03T00:36:04;13.10;;;8.13;;
15716;SDS011;7960;50.908;4.204;2023-04-03T00:38:32;9.73;;;8.20;;
15716;SDS011;7960;50.908;4.204;2023-04-03T00:40:59;12.63;;;7.57;;
15716;SDS011;7960;50.908;4.204;2023-04-03T00:43:26;10.40;;;8.30;;
15716;SDS011;7960;50.908;4.204;2023-04-03T00:45:54;12.07;;;9.27;;
15716;SDS011;7960;50.908;4.204;2023-04-03T00:48:23;12.93;;;8.50;;
15716;SDS011;7960;50.908;4.204;2023-04-03T00:50:55;13.17;;;8.90;;
15716;SDS011;7960;50.908;4.204;2023-04-03T00:53:23;14.23;;;8.10;;
15716;SDS011;7960;50.908;4.204;2023-04-03T00:55:53;13.10;;;8.67;;
15716;SDS011;7960;50.908;4.204;2023-04-03T00:58:22;10.97;;;7.93;;
15716;SDS011;7960;50.908;4.204;2023-04-03T01:00:55;11.40;;;8.23;;
15716;SDS011;7960;50.908;4.204;2023-04-03T01:03:24;10.20;;;8.43;;
15716;SDS011;7960;50.908;4.204;2023-04-03T01:05:51;11.07;;;7.93;;
15716;SDS011;7960;50.908;4.204;2023-04-03T01:08:21;13.43;;;8.50;;
15716;SDS011;7960;50.908;4.204;2023-04-03T01:10:48;12.63;;;8.37;;
15716;SDS011;7960;50.908;4.204;2023-04-03T01:13:20;12.57;;;8.60;;
15716;SDS011;7960;50.908;4.204;2023-04-03T01:15:49;12.90;;;8.50;;
15716;SDS011;7960;50.908;4.204;2023-04-03T01:18:16;10.80;;;7.60;;
15716;SDS011;7960;50.908;4.204;2023-04-03T01:23:54;10.30;;;7.57;;
15716;SDS011;7960;50.908;4.204;2023-04-03T01:26:32;10.60;;;7.73;;
15716;SDS011;7960;50.908;4.204;2023-04-03T01:29:00;13.33;;;7.43;;
15716;SDS011;7960;50.908;4.204;2023-04-03T01:31:28;8.60;;;7.17;;
15716;SDS011;7960;50.908;4.204;2023-04-03T01:34:00;12.33;;;7.33;;
15716;SDS011;7960;50.908;4.204;2023-04-03T01:36:28;9.43;;;7.50;;
15716;SDS011;7960;50.908;4.204;2023-04-03T01:38:57;8.03;;;6.97;;
15716;SDS011;7960;50.908;4.204;2023-04-03T01:41:25;12.23;;;7.80;;
15716;SDS011;7960;50.908;4.204;2023-04-03T01:43:52;9.13;;;7.23;;
15716;SDS011;7960;50.908;4.204;2023-04-03T01:46:19;11.33;;;7.67;;
15716;SDS011;7960;50.908;4.204;2023-04-03T01:48:46;8.70;;;6.90;;
15716;SDS011;7960;50.908;4.204;2023-04-03T01:51:15;9.67;;;7.43;;
15716;SDS011;7960;50.908;4.204;2023-04-03T01:53:42;10.33;;;7.47;;
15716;SDS011;7960;50.908;4.204;2023-04-03T01:56:09;8.30;;;6.87;;
15716;SDS011;7960;50.908;4.204;2023-04-03T01:58:36;9.47;;;7.40;;
15716;SDS011;7960;50.908;4.204;2023-04-03T02:01:04;11.27;;;7.40;;
15716;SDS011;7960;50.908;4.204;2023-04-03T02:03:31;9.30;;;7.47;;
15716;SDS011;7960;50.908;4.204;2023-04-03T02:05:59;8.83;;;7.13;;
15716;SDS011;7960;50.908;4.204;2023-04-03T02:08:28;9.07;;;6.73;;
15716;SDS011;7960;50.908;4.204;2023-04-03T02:10:55;8.40;;;6.97;;
15716;SDS011;7960;50.908;4.204;2023-04-03T02:13:21;7.27;;;6.50;;
15716;SDS011;7960;50.908;4.204;2023-04-03T02:15:48;8.63;;;6.37;;
15716;SDS011;7960;50.908;4.204;2023-04-03T02:18:16;9.90;;;6.97;;
15716;SDS011;7960;50.908;4.204;2023-04-03T02:20:43;8.90;;;6.93;;
15716;SDS011;7960;50.908;4.204;2023-04-03T02:23:10;11.30;;;7.10;;
15716;SDS011;7960;50.908;4.204;2023-04-03T02:25:38;9.87;;;6.77;;
15716;SDS011;7960;50.908;4.204;2023-04-03T02:28:05;9.13;;;6.87;;
15716;SDS011;7960;50.908;4.204;2023-04-03T02:30:32;7.50;;;6.70;;
15716;SDS011;7960;50.908;4.204;2023-04-03T02:32:59;7.23;;;6.27;;
15716;SDS011;7960;50.908;4.204;2023-04-03T02:35:26;11.17;;;6.90;;
15716;SDS011;7960;50.908;4.204;2023-04-03T02:37:53;8.93;;;6.67;;
15716;SDS011;7960;50.908;4.204;2023-04-03T02:40:20;10.27;;;7.10;;
15716;SDS011;7960;50.908;4.204;2023-04-03T02:42:49;8.30;;;7.00;;
15716;SDS011;7960;50.908;4.204;2023-04-03T02:45:15;8.23;;;7.20;;
15716;SDS011;7960;50.908;4.204;2023-04-03T02:47:42;8.33;;;6.90;;
15716;SDS011;7960;50.908;4.204;2023-04-03T02:50:09;8.90;;;7.23;;
15716;SDS011;7960;50.908;4.204;2023-04-03T02:52:36;9.83;;;6.97;;
15716;SDS011;7960;50.908;4.204;2023-04-03T02:55:04;11.67;;;7.23;;
15716;SDS011;7960;50.908;4.204;2023-04-03T02:57:31;8.63;;;6.50;;
15716;SDS011;7960;50.908;4.204;2023-04-03T02:59:59;9.67;;;6.53;;
15716;SDS011;7960;50.908;4.204;2023-04-03T03:02:27;12.23;;;6.63;;
15716;SDS011;7960;50.908;4.204;2023-04-03T03:04:54;9.80;;;7.07;;
15716;SDS011;7960;50.908;4.204;2023-04-03T03:07:21;8.87;;;6.40;;
15716;SDS011;7960;50.908;4.204;2023-04-03T03:09:48;10.73;;;6.47;;
15716;SDS011;7960;50.908;4.204;2023-04-03T03:12:15;8.67;;;6.17;;
15716;SDS011;7960;50.908;4.204;2023-04-03T03:14:46;9.13;;;6.73;;
15716;SDS011;7960;50.908;4.204;2023-04-03T03:17:14;9.73;;;7.23;;
15716;SDS011;7960;50.908;4.204;2023-04-03T03:19:42;10.17;;;6.73;;
15716;SDS011;7960;50.908;4.204;2023-04-03T03:22:10;8.50;;;6.43;;
15716;SDS011;7960;50.908;4.204;2023-04-03T03:24:37;8.37;;;6.77;;
15716;SDS011;7960;50.908;4.204;2023-04-03T03:27:04;11.43;;;7.30;;
15716;SDS011;7960;50.908;4.204;2023-04-03T03:29:31;9.53;;;7.07;;
15716;SDS011;7960;50.908;4.204;2023-04-03T03:31:58;8.73;;;7.57;;
15716;SDS011;7960;50.908;4.204;2023-04-03T03:34:26;7.80;;;6.43;;
15716;SDS011;7960;50.908;4.204;2023-04-03T03:36:53;9.47;;;6.60;;
15716;SDS011;7960;50.908;4.204;2023-04-03T03:39:20;13.87;;;7.57;;
15716;SDS011;7960;50.908;4.204;2023-04-03T03:41:47;8.53;;;6.60;;
15716;SDS011;7960;50.908;4.204;2023-04-03T03:44:15;7.90;;;6.80;;
15716;SDS011;7960;50.908;4.204;2023-04-03T03:46:42;8.77;;;7.20;;
15716;SDS011;7960;50.908;4.204;2023-04-03T03:49:09;8.40;;;6.53;;
15716;SDS011;7960;50.908;4.204;2023-04-03T03:51:38;8.87;;;6.80;;
15716;SDS011;7960;50.908;4.204;2023-04-03T03:54:06;11.23;;;6.77;;
15716;SDS011;7960;50.908;4.204;2023-04-03T03:56:33;8.53;;;6.80;;
15716;SDS011;7960;50.908;4.204;2023-04-03T03:59:00;8.63;;;6.83;;
15716;SDS011;7960;50.908;4.204;2023-04-03T04:01:30;14.00;;;7.70;;
15716;SDS011;7960;50.908;4.204;2023-04-03T04:03:57;12.43;;;6.83;;
15716;SDS011;7960;50.908;4.204;2023-04-03T04:06:24;10.63;;;7.10;;
15716;SDS011;7960;50.908;4.204;2023-04-03T04:08:52;9.07;;;7.23;;
15716;SDS011;7960;50.908;4.204;2023-04-03T04:11:19;11.30;;;7.27;;
15716;SDS011;7960;50.908;4.204;2023-04-03T04:13:47;8.87;;;6.93;;
15716;SDS011;7960;50.908;4.204;2023-04-03T04:16:14;10.30;;;7.47;;
15716;SDS011;7960;50.908;4.204;2023-04-03T04:18:41;10.77;;;8.33;;
15716;SDS011;7960;50.908;4.204;2023-04-03T04:23:48;10.80;;;7.87;;
15716;SDS011;7960;50.908;4.204;2023-04-03T04:26:16;10.50;;;8.43;;
15716;SDS011;7960;50.908;4.204;2023-04-03T04:28:43;12.13;;;7.53;;
15716;SDS011;7960;50.908;4.204;2023-04-03T04:31:10;10.57;;;7.87;;
15716;SDS011;7960;50.908;4.204;2023-04-03T04:33:37;13.47;;;8.50;;
15716;SDS011;7960;50.908;4.204;2023-04-03T04:36:04;10.13;;;7.90;;
15716;SDS011;7960;50.908;4.204;2023-04-03T04:38:31;13.73;;;8.40;;
15716;SDS011;7960;50.908;4.204;2023-04-03T04:40:57;10.77;;;8.40;;
15716;SDS011;7960;50.908;4.204;2023-04-03T04:43:26;9.37;;;7.93;;
15716;SDS011;7960;50.908;4.204;2023-04-03T04:46:00;12.67;;;8.17;;
15716;SDS011;7960;50.908;4.204;2023-04-03T04:48:27;11.00;;;8.27;;
15716;SDS011;7960;50.908;4.204;2023-04-03T04:50:55;10.63;;;7.53;;
15716;SDS011;7960;50.908;4.204;2023-04-03T04:53:22;11.83;;;9.23;;
15716;SDS011;7960;50.908;4.204;2023-04-03T04:55:49;11.83;;;9.40;;
15716;SDS011;7960;50.908;4.204;2023-04-03T04:58:16;14.17;;;10.30;;
15716;SDS011;7960;50.908;4.204;2023-04-03T05:00:44;11.60;;;9.53;;
15716;SDS011;7960;50.908;4.204;2023-04-03T05:03:11;10.83;;;9.23;;
15716;SDS011;7960;50.908;4.204;2023-04-03T05:05:38;15.07;;;8.90;;
15716;SDS011;7960;50.908;4.204;2023-04-03T05:08:05;11.13;;;9.13;;
15716;SDS011;7960;50.908;4.204;2023-04-03T05:10:33;17.27;;;10.17;;
15716;SDS011;7960;50.908;4.204;2023-04-03T05:13:00;18.00;;;9.00;;
15716;SDS011;7960;50.908;4.204;2023-04-03T05:15:27;13.50;;;9.13;;
15716;SDS011;7960;50.908;4.204;2023-04-03T05:17:55;12.63;;;9.57;;
15716;SDS011;7960;50.908;4.204;2023-04-03T05:20:22;11.40;;;9.10;;
15716;SDS011;7960;50.908;4.204;2023-04-03T05:22:49;16.97;;;9.77;;
15716;SDS011;7960;50.908;4.204;2023-04-03T05:25:16;12.63;;;9.33;;
15716;SDS011;7960;50.908;4.204;2023-04-03T05:27:43;11.80;;;9.80;;
15716;SDS011;7960;50.908;4.204;2023-04-03T05:30:10;13.30;;;9.50;;
15716;SDS011;7960;50.908;4.204;2023-04-03T05:32:37;12.60;;;9.87;;
15716;SDS011;7960;50.908;4.204;2023-04-03T05:35:06;13.20;;;9.37;;
15716;SDS011;7960;50.908;4.204;2023-04-03T05:37:34;14.97;;;9.50;;
15716;SDS011;7960;50.908;4.204;2023-04-03T05:40:02;12.93;;;10.30;;
15716;SDS011;7960;50.908;4.204;2023-04-03T05:42:30;15.40;;;9.80;;
15716;SDS011;7960;50.908;4.204;2023-04-03T05:44:56;15.80;;;10.63;;
15716;SDS011;7960;50.908;4.204;2023-04-03T05:47:23;16.73;;;10.43;;
15716;SDS011;7960;50.908;4.204;2023-04-03T05:49:50;16.50;;;10.63;;
15716;SDS011;7960;50.908;4.204;2023-04-03T05:52:20;15.73;;;10.13;;
15716;SDS011;7960;50.908;4.204;2023-04-03T05:54:48;12.20;;;9.13;;
15716;SDS011;7960;50.908;4.204;2023-04-03T05:57:15;16.70;;;10.20;;
15716;SDS011;7960;50.908;4.204;2023-04-03T05:59:43;15.27;;;9.77;;
15716;SDS011;7960;50.908;4.204;2023-04-03T06:02:10;14.00;;;9.77;;
15716;SDS011;7960;50.908;4.204;2023-04-03T06:04:38;14.83;;;10.43;;
15716;SDS011;7960;50.908;4.204;2023-04-03T06:07:05;13.53;;;10.07;;
15716;SDS011;7960;50.908;4.204;2023-04-03T06:09:34;23.03;;;11.33;;
15716;SDS011;7960;50.908;4.204;2023-04-03T06:12:00;15.40;;;10.40;;
15716;SDS011;7960;50.908;4.204;2023-04-03T06:14:28;14.93;;;9.73;;
15716;SDS011;7960;50.908;4.204;2023-04-03T06:16:55;15.03;;;9.60;;
15716;SDS011;7960;50.908;4.204;2023-04-03T06:19:21;14.70;;;10.53;;
15716;SDS011;7960;50.908;4.204;2023-04-03T06:21:48;17.10;;;11.03;;
15716;SDS011;7960;50.908;4.204;2023-04-03T06:24:16;15.10;;;10.17;;
15716;SDS011;7960;50.908;4.204;2023-04-03T06:26:46;13.90;;;10.30;;
15716;SDS011;7960;50.908;4.204;2023-04-03T06:29:13;13.80;;;9.73;;
15716;SDS011;7960;50.908;4.204;2023-04-03T06:31:40;18.80;;;10.20;;
15716;SDS011;7960;50.908;4.204;2023-04-03T06:34:07;15.03;;;9.67;;
15716;SDS011;7960;50.908;4.204;2023-04-03T06:36:36;13.30;;;9.73;;
15716;SDS011;7960;50.908;4.204;2023-04-03T06:39:02;14.73;;;10.97;;
15716;SDS011;7960;50.908;4.204;2023-04-03T06:41:29;13.53;;;10.57;;
15716;SDS011;7960;50.908;4.204;2023-04-03T06:43:57;12.87;;;10.10;;
15716;SDS011;7960;50.908;4.204;2023-04-03T06:46:25;15.47;;;10.93;;
15716;SDS011;7960;50.908;4.204;2023-04-03T06:48:52;11.27;;;9.83;;
15716;SDS011;7960;50.908;4.204;2023-04-03T06:51:20;15.93;;;10.80;;
15716;SDS011;7960;50.908;4.204;2023-04-03T06:53:50;11.63;;;10.13;;
15716;SDS011;7960;50.908;4.204;2023-04-03T06:56:19;15.47;;;11.10;;
15716;SDS011;7960;50.908;4.204;2023-04-03T06:58:47;13.47;;;10.40;;
15716;SDS011;7960;50.908;4.204;2023-04-03T07:01:20;11.63;;;9.80;;
15716;SDS011;7960;50.908;4.204;2023-04-03T07:03:48;15.90;;;10.23;;
15716;SDS011;7960;50.908;4.204;2023-04-03T07:06:15;14.97;;;11.00;;
15716;SDS011;7960;50.908;4.204;2023-04-03T07:08:46;15.50;;;11.00;;
15716;SDS011;7960;50.908;4.204;2023-04-03T07:11:14;14.03;;;10.67;;
15716;SDS011;7960;50.908;4.204;2023-04-03T07:13:41;13.90;;;10.27;;
15716;SDS011;7960;50.908;4.204;2023-04-03T07:16:08;13.77;;;10.80;;
15716;SDS011;7960;50.908;4.204;2023-04-03T07:18:37;14.10;;;11.67;;
15716;SDS011;7960;50.908;4.204;2023-04-03T07:21:08;12.50;;;10.57;;
15716;SDS011;7960;50.908;4.204;2023-04-03T07:23:35;13.20;;;10.80;;
15716;SDS011;7960;50.908;4.204;2023-04-03T07:26:02;13.50;;;10.73;;
15716;SDS011;7960;50.908;4.204;2023-04-03T07:28:29;12.33;;;10.37;;
15716;SDS011;7960;50.908;4.204;2023-04-03T07:30:59;12.93;;;10.57;;
15716;SDS011;7960;50.908;4.204;2023-04-03T07:33:28;16.37;;;10.47;;
15716;SDS011;7960;50.908;4.204;2023-04-03T07:35:58;19.43;;;14.70;;
15716;SDS011;7960;50.908;4.204;2023-04-03T07:38:25;16.10;;;10.70;;
15716;SDS011;7960;50.908;4.204;2023-04-03T07:40:52;15.60;;;10.63;;
15716;SDS011;7960;50.908;4.204;2023-04-03T07:43:20;14.83;;;10.67;;
15716;SDS011;7960;50.908;4.204;2023-04-03T07:45:50;14.67;;;10.20;;
15716;SDS011;7960;50.908;4.204;2023-04-03T07:48:17;12.60;;;9.73;;
15716;SDS011;7960;50.908;4.204;2023-04-03T07:50:46;14.60;;;10.43;;
15716;SDS011;7960;50.908;4.204;2023-04-03T07:53:14;18.67;;;10.23;;
15716;SDS011;7960;50.908;4.204;2023-04-03T07:55:42;13.80;;;9.73;;
15716;SDS011;7960;50.908;4.204;2023-04-03T07:58:09;14.30;;;10.53;;
15716;SDS011;7960;50.908;4.204;2023-04-03T08:00:37;15.23;;;10.30;;
15716;SDS011;7960;50.908;4.204;2023-04-03T08:03:06;13.57;;;9.73;;
15716;SDS011;7960;50.908;4.204;2023-04-03T08:05:36;17.20;;;9.13;;
15716;SDS011;7960;50.908;4.204;2023-04-03T08:08:03;10.70;;;9.20;;
15716;SDS011;7960;50.908;4.204;2023-04-03T08:10:32;9.73;;;8.33;;
15716;SDS011;7960;50.908;4.204;2023-04-03T08:13:02;12.33;;;8.57;;
15716;SDS011;7960;50.908;4.204;2023-04-03T08:15:30;13.40;;;10.50;;
15716;SDS011;7960;50.908;4.204;2023-04-03T08:17:57;10.43;;;8.20;;
15716;SDS011;7960;50.908;4.204;2023-04-03T08:20:24;9.00;;;8.00;;
15716;SDS011;7960;50.908;4.204;2023-04-03T08:22:51;16.43;;;9.17;;
15716;SDS011;7960;50.908;4.204;2023-04-03T08:25:18;13.33;;;8.63;;
15716;SDS011;7960;50.908;4.204;2023-04-03T08:27:47;11.17;;;8.60;;
15716;SDS011;7960;50.908;4.204;2023-04-03T08:30:14;9.93;;;8.50;;
15716;SDS011;7960;50.908;4.204;2023-04-03T08:32:41;27.90;;;15.73;;
15716;SDS011;7960;50.908;4.204;2023-04-03T08:35:09;20.07;;;12.50;;
15716;SDS011;7960;50.908;4.204;2023-04-03T08:37:36;17.13;;;13.63;;
15716;SDS011;7960;50.908;4.204;2023-04-03T08:40:04;16.13;;;13.50;;
15716;SDS011;7960;50.908;4.204;2023-04-03T08:42:36;21.77;;;15.67;;
15716;SDS011;7960;50.908;4.204;2023-04-03T08:45:15;20.67;;;15.97;;
15716;SDS011;7960;50.908;4.204;2023-04-03T08:47:48;19.63;;;14.70;;
15716;SDS011;7960;50.908;4.204;2023-04-03T08:50:19;16.17;;;13.07;;
15716;SDS011;7960;50.908;4.204;2023-04-03T08:52:50;13.80;;;9.93;;
15716;SDS011;7960;50.908;4.204;2023-04-03T08:55:22;11.73;;;8.80;;
15716;SDS011;7960;50.908;4.204;2023-04-03T08:57:53;11.23;;;8.70;;
15716;SDS011;7960;50.908;4.204;2023-04-03T09:00:28;13.07;;;8.73;;
15716;SDS011;7960;50.908;4.204;2023-04-03T09:02:59;10.70;;;8.63;;
15716;SDS011;7960;50.908;4.204;2023-04-03T09:05:29;12.13;;;7.70;;
15716;SDS011;7960;50.908;4.204;2023-04-03T09:08:11;11.43;;;6.60;;
15716;SDS011;7960;50.908;4.204;2023-04-03T09:10:44;12.40;;;7.10;;
15716;SDS011;7960;50.908;4.204;2023-04-03T09:13:13;12.30;;;6.73;;
15716;SDS011;7960;50.908;4.204;2023-04-03T09:15:49;17.40;;;7.17;;
15716;SDS011;7960;50.908;4.204;2023-04-03T09:18:19;10.10;;;5.80;;
15716;SDS011;7960;50.908;4.204;2023-04-03T09:20:49;8.93;;;6.13;;
15716;SDS011;7960;50.908;4.204;2023-04-03T09:23:24;11.53;;;5.90;;
15716;SDS011;7960;50.908;4.204;2023-04-03T09:25:56;8.77;;;5.00;;
15716;SDS011;7960;50.908;4.204;2023-04-03T09:28:30;7.30;;;4.80;;
15716;SDS011;7960;50.908;4.204;2023-04-03T09:31:01;9.17;;;4.97;;
15716;SDS011;7960;50.908;4.204;2023-04-03T09:33:36;7.57;;;4.87;;
15716;SDS011;7960;50.908;4.204;2023-04-03T09:36:06;10.50;;;5.23;;
15716;SDS011;7960;50.908;4.204;2023-04-03T09:38:32;7.07;;;4.60;;
15716;SDS011;7960;50.908;4.204;2023-04-03T09:41:03;6.10;;;4.13;;
15716;SDS011;7960;50.908;4.204;2023-04-03T09:43:33;7.50;;;4.60;;
15716;SDS011;7960;50.908;4.204;2023-04-03T09:48:55;11.93;;;4.63;;
15716;SDS011;7960;50.908;4.204;2023-04-03T09:51:24;7.77;;;4.03;;
15716;SDS011;7960;50.908;4.204;2023-04-03T09:53:53;8.17;;;3.80;;
15716;SDS011;7960;50.908;4.204;2023-04-03T09:56:21;5.57;;;3.50;;
15716;SDS011;7960;50.908;4.204;2023-04-03T09:58:51;8.73;;;4.37;;
15716;SDS011;7960;50.908;4.204;2023-04-03T10:01:57;8.27;;;4.70;;
15716;SDS011;7960;50.908;4.204;2023-04-03T10:04:36;7.30;;;3.97;;
15716;SDS011;7960;50.908;4.204;2023-04-03T10:07:05;8.13;;;3.57;;
15716;SDS011;7960;50.908;4.204;2023-04-03T10:09:54;6.70;;;3.67;;
15716;SDS011;7960;50.908;4.204;2023-04-03T10:12:22;5.53;;;3.43;;
15716;SDS011;7960;50.908;4.204;2023-04-03T10:14:53;6.57;;;3.37;;
15716;SDS011;7960;50.908;4.204;2023-04-03T10:17:25;4.33;;;2.63;;
15716;SDS011;7960;50.908;4.204;2023-04-03T10:20:00;4.73;;;2.97;;
15716;SDS011;7960;50.908;4.204;2023-04-03T10:22:33;4.33;;;3.03;;
15716;SDS011;7960;50.908;4.204;2023-04-03T10:25:11;8.43;;;4.30;;
15716;SDS011;7960;50.908;4.204;2023-04-03T10:27:46;5.13;;;2.93;;
15716;SDS011;7960;50.908;4.204;2023-04-03T10:30:21;19.27;;;10.53;;
15716;SDS011;7960;50.908;4.204;2023-04-03T10:33:13;7.77;;;4.07;;
15716;SDS011;7960;50.908;4.204;2023-04-03T10:35:51;5.43;;;3.37;;
15716;SDS011;7960;50.908;4.204;2023-04-03T10:38:30;5.70;;;3.07;;
15716;SDS011;7960;50.908;4.204;2023-04-03T10:41:04;5.87;;;3.37;;
15716;SDS011;7960;50.908;4.204;2023-04-03T10:43:36;5.43;;;3.13;;
15716;SDS011;7960;50.908;4.204;2023-04-03T10:46:09;8.00;;;4.03;;
15716;SDS011;7960;50.908;4.204;2023-04-03T10:48:51;14.10;;;3.93;;
15716;SDS011;7960;50.908;4.204;2023-04-03T10:51:26;6.97;;;3.07;;
15716;SDS011;7960;50.908;4.204;2023-04-03T10:54:00;15.33;;;3.37;;
15716;SDS011;7960;50.908;4.204;2023-04-03T10:56:35;4.93;;;2.70;;
15716;SDS011;7960;50.908;4.204;2023-04-03T10:59:13;4.77;;;2.70;;
15716;SDS011;7960;50.908;4.204;2023-04-03T11:01:44;6.30;;;2.80;;
15716;SDS011;7960;50.908;4.204;2023-04-03T11:04:15;7.43;;;3.13;;
15716;SDS011;7960;50.908;4.204;2023-04-03T11:06:46;5.37;;;2.70;;
15716;SDS011;7960;50.908;4.204;2023-04-03T11:09:19;6.90;;;2.70;;
15716;SDS011;7960;50.908;4.204;2023-04-03T11:11:50;5.43;;;2.70;;
15716;SDS011;7960;50.908;4.204;2023-04-03T11:14:24;8.00;;;2.77;;
15716;SDS011;7960;50.908;4.204;2023-04-03T11:16:58;6.83;;;2.77;;
15716;SDS011;7960;50.908;4.204;2023-04-03T11:19:33;9.33;;;3.20;;
15716;SDS011;7960;50.908;4.204;2023-04-03T11:22:05;7.40;;;2.90;;
15716;SDS011;7960;50.908;4.204;2023-04-03T11:24:36;5.90;;;2.63;;
15716;SDS011;7960;50.908;4.204;2023-04-03T11:27:08;4.47;;;2.60;;
15716;SDS011;7960;50.908;4.204;2023-04-03T11:29:42;3.00;;;2.40;;
15716;SDS011;7960;50.908;4.204;2023-04-03T11:32:24;5.63;;;2.87;;
15716;SDS011;7960;50.908;4.204;2023-04-03T11:35:01;5.00;;;2.93;;
15716;SDS011;7960;50.908;4.204;2023-04-03T11:37:31;4.87;;;2.73;;
15716;SDS011;7960;50.908;4.204;2023-04-03T11:40:02;2.63;;;2.20;;
15716;SDS011;7960;50.908;4.204;2023-04-03T11:42:34;5.27;;;2.50;;
15716;SDS011;7960;50.908;4.204;2023-04-03T11:45:17;4.73;;;2.10;;
15716;SDS011;7960;50.908;4.204;2023-04-03T11:47:56;4.60;;;2.60;;
15716;SDS011;7960;50.908;4.204;2023-04-03T11:50:38;5.10;;;2.40;;
15716;SDS011;7960;50.908;4.204;2023-04-03T11:53:26;7.50;;;3.03;;
15716;SDS011;7960;50.908;4.204;2023-04-03T12:01:50;6.30;;;3.60;;
15716;SDS011;7960;50.908;4.204;2023-04-03T12:04:18;3.50;;;2.40;;
15716;SDS011;7960;50.908;4.204;2023-04-03T12:06:52;4.87;;;2.20;;
15716;SDS011;7960;50.908;4.204;2023-04-03T12:12:35;4.30;;;2.53;;
15716;SDS011;7960;50.908;4.204;2023-04-03T12:15:16;4.37;;;2.53;;
15716;SDS011;7960;50.908;4.204;2023-04-03T12:17:47;6.17;;;2.17;;
15716;SDS011;7960;50.908;4.204;2023-04-03T12:23:30;5.07;;;2.40;;
15716;SDS011;7960;50.908;4.204;2023-04-03T12:25:59;4.20;;;2.33;;
15716;SDS011;7960;50.908;4.204;2023-04-03T12:28:29;4.83;;;2.20;;
15716;SDS011;7960;50.908;4.204;2023-04-03T12:31:04;3.47;;;1.90;;
15716;SDS011;7960;50.908;4.204;2023-04-03T12:33:33;3.77;;;2.13;;
15716;SDS011;7960;50.908;4.204;2023-04-03T12:36:15;4.07;;;2.10;;
15716;SDS011;7960;50.908;4.204;2023-04-03T12:38:57;5.70;;;2.77;;
15716;SDS011;7960;50.908;4.204;2023-04-03T12:41:36;4.13;;;2.70;;
15716;SDS011;7960;50.908;4.204;2023-04-03T12:44:11;5.67;;;2.20;;
15716;SDS011;7960;50.908;4.204;2023-04-03T12:46:52;3.93;;;2.20;;
15716;SDS011;7960;50.908;4.204;2023-04-03T12:49:26;3.93;;;2.30;;
15716;SDS011;7960;50.908;4.204;2023-04-03T12:52:00;4.93;;;2.00;;
15716;SDS011;7960;50.908;4.204;2023-04-03T12:54:47;4.50;;;2.30;;
15716;SDS011;7960;50.908;4.204;2023-04-03T12:57:17;3.73;;;2.40;;
15716;SDS011;7960;50.908;4.204;2023-04-03T12:59:47;4.57;;;2.10;;
15716;SDS011;7960;50.908;4.204;2023-04-03T13:02:19;5.83;;;2.53;;
15716;SDS011;7960;50.908;4.204;2023-04-03T13:04:49;3.47;;;2.30;;
15716;SDS011;7960;50.908;4.204;2023-04-03T13:07:18;3.17;;;2.20;;
15716;SDS011;7960;50.908;4.204;2023-04-03T13:09:56;7.67;;;2.63;;
15716;SDS011;7960;50.908;4.204;2023-04-03T13:12:26;4.30;;;1.93;;
15716;SDS011;7960;50.908;4.204;2023-04-03T13:14:54;3.57;;;1.77;;
15716;SDS011;7960;50.908;4.204;2023-04-03T13:17:23;3.00;;;2.00;;
15716;SDS011;7960;50.908;4.204;2023-04-03T13:19:52;2.33;;;1.87;;
15716;SDS011;7960;50.908;4.204;2023-04-03T13:22:25;1.83;;;1.70;;
15716;SDS011;7960;50.908;4.204;2023-04-03T13:24:58;4.27;;;2.10;;
15716;SDS011;7960;50.908;4.204;2023-04-03T13:27:28;3.27;;;1.63;;
15716;SDS011;7960;50.908;4.204;2023-04-03T13:29:57;4.77;;;2.20;;
15716;SDS011;7960;50.908;4.204;2023-04-03T13:32:27;2.43;;;1.97;;
15716;SDS011;7960;50.908;4.204;2023-04-03T13:34:57;5.20;;;2.20;;
15716;SDS011;7960;50.908;4.204;2023-04-03T13:37:25;3.73;;;2.00;;
15716;SDS011;7960;50.908;4.204;2023-04-03T13:39:59;2.23;;;2.03;;
15716;SDS011;7960;50.908;4.204;2023-04-03T13:42:31;5.07;;;2.33;;
15716;SDS011;7960;50.908;4.204;2023-04-03T13:45:17;6.77;;;2.40;;
15716;SDS011;7960;50.908;4.204;2023-04-03T13:47:49;7.27;;;2.93;;
15716;SDS011;7960;50.908;4.204;2023-04-03T13:50:18;3.27;;;2.20;;
15716;SDS011;7960;50.908;4.204;2023-04-03T13:52:47;4.37;;;1.93;;
15716;SDS011;7960;50.908;4.204;2023-04-03T13:55:21;4.27;;;2.27;;
15716;SDS011;7960;50.908;4.204;2023-04-03T13:57:51;4.47;;;2.10;;
15716;SDS011;7960;50.908;4.204;2023-04-03T14:00:25;8.87;;;4.80;;
15716;SDS011;7960;50.908;4.204;2023-04-03T14:02:56;2.80;;;2.20;;
15716;SDS011;7960;50.908;4.204;2023-04-03T14:05:24;4.50;;;2.40;;
15716;SDS011;7960;50.908;4.204;2023-04-03T14:07:51;3.37;;;2.20;;
15716;SDS011;7960;50.908;4.204;2023-04-03T14:10:20;4.13;;;2.00;;
15716;SDS011;7960;50.908;4.204;2023-04-03T14:12:47;3.50;;;2.30;;
15716;SDS011;7960;50.908;4.204;2023-04-03T14:15:17;3.73;;;2.27;;
15716;SDS011;7960;50.908;4.204;2023-04-03T14:17:48;4.70;;;3.47;;
15716;SDS011;7960;50.908;4.204;2023-04-03T14:20:16;4.80;;;2.50;;
15716;SDS011;7960;50.908;4.204;2023-04-03T14:22:45;2.97;;;2.03;;
15716;SDS011;7960;50.908;4.204;2023-04-03T14:25:12;4.73;;;2.47;;
15716;SDS011;7960;50.908;4.204;2023-04-03T14:27:41;5.77;;;2.60;;
15716;SDS011;7960;50.908;4.204;2023-04-03T14:30:12;3.73;;;2.17;;
15716;SDS011;7960;50.908;4.204;2023-04-03T14:32:41;3.70;;;2.20;;
15716;SDS011;7960;50.908;4.204;2023-04-03T14:35:08;7.10;;;2.80;;
15716;SDS011;7960;50.908;4.204;2023-04-03T14:37:36;4.83;;;2.53;;
15716;SDS011;7960;50.908;4.204;2023-04-03T14:40:03;3.53;;;2.40;;
15716;SDS011;7960;50.908;4.204;2023-04-03T14:42:33;4.43;;;2.40;;
15716;SDS011;7960;50.908;4.204;2023-04-03T14:45:03;6.60;;;2.50;;
15716;SDS011;7960;50.908;4.204;2023-04-03T14:47:32;3.23;;;2.00;;
15716;SDS011;7960;50.908;4.204;2023-04-03T14:50:01;6.07;;;2.70;;
15716;SDS011;7960;50.908;4.204;2023-04-03T14:52:31;3.70;;;2.20;;
15716;SDS011;7960;50.908;4.204;2023-04-03T14:55:01;4.83;;;2.57;;
15716;SDS011;7960;50.908;4.204;2023-04-03T14:57:31;4.43;;;2.27;;
15716;SDS011;7960;50.908;4.204;2023-04-03T14:59:58;4.53;;;2.23;;
15716;SDS011;7960;50.908;4.204;2023-04-03T15:02:28;4.13;;;2.33;;
15716;SDS011;7960;50.908;4.204;2023-04-03T15:04:57;2.73;;;2.20;;
15716;SDS011;7960;50.908;4.204;2023-04-03T15:07:26;9.30;;;2.97;;
15716;SDS011;7960;50.908;4.204;2023-04-03T15:09:54;3.50;;;1.70;;
15716;SDS011;7960;50.908;4.204;2023-04-03T15:12:22;3.87;;;2.00;;
15716;SDS011;7960;50.908;4.204;2023-04-03T15:14:49;5.43;;;2.30;;
15716;SDS011;7960;50.908;4.204;2023-04-03T15:17:17;5.13;;;2.20;;
15716;SDS011;7960;50.908;4.204;2023-04-03T15:19:52;4.10;;;2.13;;
15716;SDS011;7960;50.908;4.204;2023-04-03T15:22:19;4.17;;;2.80;;
15716;SDS011;7960;50.908;4.204;2023-04-03T15:24:46;3.43;;;2.27;;
15716;SDS011;7960;50.908;4.204;2023-04-03T15:27:13;2.50;;;2.00;;
15716;SDS011;7960;50.908;4.204;2023-04-03T15:29:41;9.97;;;2.60;;